Meath Environmental Platform

Observations for Trim Market St

Time AQI Temp °C Hum % Pres Pa CO μg/m³ H₂S μg/m³ NO μg/m³ NO₂ μg/m³ O₃ μg/m³ SO₂ μg/m³ PM1 μg/m³ PM2.5 μg/m³ PM10 μg/m³
Sunday 23 August 2026
02:51 2 13.9 68 56,934 0.31 0 2.12 8.04 53.26 0 1.43 3.16 4.97
02:50 2 13.9 68 56,943 0.31 0 2.25 7.76 54.08 0 1.43 4.63 6.89
02:49 2 13.9 68 56,953 0.33 0 2.33 8.29 53.03 0 1.43 3.65 5.61
02:47 2 13.9 68 56,973 0.32 0 2.72 8.29 52.45 0 2.14 3.65 5.61
02:44 2 14 68 56,997 0.32 0 2.34 7.9 53.92 0 0.71 2.18 3.69
02:43 2 14 68 57,004 0.32 0 2.54 8.4 52.46 0 0.71 3.66 6.25
02:38 2 14.1 68 57,016 0.31 0 2.9 8.44 52.29 0 2.14 4.15 6.25
02:36 2 14.1 67 57,028 0.37 0 2.39 11.79 49.37 0 1.43 3.67 5.6
02:32 2 14.1 67 57,051 0.31 0 2.11 7.76 54.84 0 1.43 3.18 6.24
02:31 2 14.1 67 57,056 0.31 0 2.09 8.04 54.09 0 2.14 3.67 6.24
02:24 2 14.2 67 57,080 0.29 0 2 7.72 56.05 0 1.43 3.2 4.95
02:23 2 14.2 67 57,083 0.29 0 2 8.16 55.68 0 2.14 3.2 6.24
02:22 2 14.2 67 57,093 0.3 0 2.12 8.32 59.92 0 2.14 3.69 5.6
02:21 2 14.2 67 57,104 0.3 0 2 8 56.15 0 1.43 3.69 6.24
02:19 2 14.2 67 57,123 0.3 0 2.3 8.51 52.72 0 1.43 3.2 6.24
02:18 2 14.3 67 57,138 0.3 0 2.28 7.86 55.75 0 2.14 3.69 5.59
02:17 2 14.3 67 57,148 0.29 0 2.12 8.56 54.21 0 1.43 3.7 5.59
02:16 2 14.3 67 57,160 0.29 0 2.08 8.11 54.8 0 1.43 2.71 4.95
02:15 2 14.3 67 57,170 0.29 0 2 7.86 55.14 0 0.71 2.22 3.65
02:14 2 14.3 67 57,177 0.29 0 2.04 7.95 55.72 0 0.71 3.2 6.24